createdAt,value
2022-12-17T00:04:27.695Z,14.60
2022-12-17T00:09:50.369Z,14.77
2022-12-17T00:15:10.458Z,13.32
2022-12-17T00:20:30.475Z,14.25
2022-12-17T00:25:50.466Z,13.90
2022-12-17T00:31:10.936Z,13.98
2022-12-17T00:36:31.102Z,15.13
2022-12-17T00:41:52.639Z,14.60
2022-12-17T00:47:12.596Z,13.98
2022-12-17T00:52:34.754Z,14.68
2022-12-17T00:57:54.653Z,16.77
2022-12-17T01:03:24.963Z,15.23
2022-12-17T01:08:44.900Z,16.90
2022-12-17T01:14:05.015Z,18.50
2022-12-17T01:19:45.032Z,22.38
2022-12-17T01:25:05.451Z,19.10
2022-12-17T01:30:26.386Z,19.58
2022-12-17T01:35:46.867Z,19.98
2022-12-17T01:41:10.993Z,21.05
2022-12-17T01:46:31.546Z,22.88
2022-12-17T01:51:52.913Z,19.85
2022-12-17T01:57:13.055Z,23.40
2022-12-17T02:02:33.107Z,20.95
2022-12-17T02:08:09.451Z,24.40
2022-12-17T02:13:38.511Z,25.25
2022-12-17T02:19:11.064Z,25.13
2022-12-17T02:24:44.226Z,25.60
2022-12-17T02:30:12.332Z,25.48
2022-12-17T02:35:35.862Z,26.25
2022-12-17T02:40:56.929Z,25.38
2022-12-17T02:46:17.420Z,24.92
2022-12-17T02:51:41.794Z,26.08
2022-12-17T02:57:01.912Z,24.85
2022-12-17T03:02:21.867Z,23.25
2022-12-17T03:07:42.127Z,24.73
2022-12-17T03:13:02.509Z,25.98
2022-12-17T03:18:22.574Z,24.08
2022-12-17T03:23:42.358Z,22.80
2022-12-17T03:29:02.543Z,25.77
2022-12-17T03:34:22.711Z,26.73
2022-12-17T03:39:42.524Z,23.63
2022-12-17T03:45:02.861Z,23.95
2022-12-17T03:50:24.343Z,24.15
2022-12-17T03:55:44.335Z,21.63
2022-12-17T04:01:04.854Z,21.77
2022-12-17T04:06:24.788Z,24.45
2022-12-17T04:11:44.748Z,22.15
2022-12-17T04:17:04.610Z,24.90
2022-12-17T04:22:25.133Z,21.95
2022-12-17T04:27:44.989Z,27.02
2022-12-17T04:33:05.600Z,24.08
2022-12-17T04:38:26.304Z,24.77
2022-12-17T04:43:46.511Z,23.52
2022-12-17T04:49:06.912Z,22.70
2022-12-17T04:54:27.144Z,24.20
2022-12-17T04:59:48.331Z,22.85
2022-12-17T05:05:08.746Z,23.13
2022-12-17T05:10:28.680Z,22.92
2022-12-17T05:15:53.151Z,24.55
2022-12-17T05:21:15.481Z,22.52
2022-12-17T05:26:41.710Z,27.10
2022-12-17T05:32:01.501Z,26.15
2022-12-17T05:37:21.184Z,22.83
2022-12-17T05:42:41.244Z,26.90
2022-12-17T05:48:01.256Z,23.98
2022-12-17T05:53:24.996Z,20.20
2022-12-17T05:58:45.467Z,19.88
2022-12-17T06:04:06.005Z,17.85
2022-12-17T06:09:26.337Z,17.25
2022-12-17T06:14:46.380Z,18.77
2022-12-17T06:20:06.258Z,18.63
2022-12-17T06:25:26.783Z,16.55
2022-12-17T06:30:47.434Z,17.02
2022-12-17T06:36:07.782Z,19.10
2022-12-17T06:41:27.660Z,18.30
2022-12-17T06:46:47.637Z,19.98
2022-12-17T06:52:09.708Z,19.63
2022-12-17T06:57:30.342Z,20.23
2022-12-17T07:02:50.756Z,22.63
2022-12-17T07:08:18.697Z,22.35
2022-12-17T07:13:38.985Z,26.60
2022-12-17T07:18:59.405Z,22.33
2022-12-17T07:24:19.658Z,28.25
2022-12-17T07:29:39.759Z,27.85
2022-12-17T07:35:00.047Z,28.55
2022-12-17T07:40:20.947Z,28.27
2022-12-17T07:45:41.275Z,27.13
2022-12-17T07:51:01.492Z,30.20
2022-12-17T07:56:21.286Z,25.33
2022-12-17T08:01:41.812Z,22.45
2022-12-17T08:07:08.732Z,27.65
2022-12-17T08:12:43.976Z,24.50
2022-12-17T08:18:03.875Z,28.58
2022-12-17T08:23:24.854Z,27.05
2022-12-17T08:28:52.364Z,32.92
2022-12-17T08:34:15.607Z,30.55
2022-12-17T08:39:36.894Z,34.75
2022-12-17T08:44:57.236Z,31.60
2022-12-17T08:50:17.350Z,29.73
2022-12-17T08:55:37.742Z,36.60
2022-12-17T09:00:58.993Z,33.45
2022-12-17T09:06:19.283Z,27.73
2022-12-17T09:11:39.366Z,36.13
2022-12-17T09:16:59.875Z,41.20
2022-12-17T09:22:20.003Z,37.95
2022-12-17T09:27:40.079Z,42.88
2022-12-17T09:33:00.849Z,35.42
2022-12-17T09:38:21.208Z,33.47
2022-12-17T09:43:50.754Z,26.42
2022-12-17T09:49:19.381Z,30.23
2022-12-17T09:55:01.989Z,30.65
2022-12-17T10:00:39.046Z,30.48
2022-12-17T10:05:59.747Z,27.52
2022-12-17T10:11:34.511Z,26.48
2022-12-17T10:17:11.730Z,27.63
2022-12-17T10:22:37.936Z,26.85
2022-12-17T10:28:00.374Z,26.00
2022-12-17T10:33:24.679Z,29.90
2022-12-17T10:38:48.717Z,28.17
2022-12-17T10:44:08.555Z,27.10
2022-12-17T10:49:34.738Z,29.98
2022-12-17T10:54:55.393Z,25.52
2022-12-17T11:00:15.566Z,30.27
2022-12-17T11:05:59.198Z,29.92
2022-12-17T11:11:22.873Z,26.70
2022-12-17T11:16:46.194Z,24.83
2022-12-17T11:22:09.819Z,27.27
2022-12-17T11:27:37.216Z,27.33
2022-12-17T11:33:16.852Z,26.15
2022-12-17T11:38:49.029Z,24.95
2022-12-17T11:44:31.147Z,26.60
2022-12-17T11:50:00.704Z,28.45
2022-12-17T11:55:50.074Z,27.33
2022-12-17T12:01:25.850Z,26.38
2022-12-17T12:07:15.352Z,28.73
2022-12-17T12:12:59.140Z,24.98
2022-12-17T12:18:46.639Z,23.00
2022-12-17T12:24:31.119Z,27.88
2022-12-17T12:30:01.712Z,26.92
2022-12-17T12:35:24.144Z,30.13
2022-12-17T12:40:56.851Z,27.52
2022-12-17T12:46:40.101Z,27.92
2022-12-17T12:52:01.001Z,27.40
2022-12-17T12:57:20.893Z,27.38
2022-12-17T13:02:51.524Z,25.88
2022-12-17T13:08:03.705Z,31.20
2022-12-17T13:13:55.948Z,27.83
2022-12-17T13:19:04.185Z,29.02
2022-12-17T13:24:22.726Z,34.67
2022-12-17T13:29:32.221Z,35.78
2022-12-17T13:35:10.458Z,33.80
2022-12-17T13:40:45.253Z,38.17
2022-12-17T13:45:47.310Z,35.90
2022-12-17T13:51:02.134Z,32.33
2022-12-17T13:56:03.845Z,36.60
2022-12-17T14:01:09.195Z,36.20
2022-12-17T14:11:31.585Z,37.10
2022-12-17T14:16:33.090Z,32.30
2022-12-17T14:21:37.310Z,35.95
2022-12-17T14:26:53.303Z,38.63
2022-12-17T14:32:03.932Z,31.98
2022-12-17T14:37:05.577Z,33.25
2022-12-17T14:42:26.793Z,35.85
2022-12-17T14:47:41.590Z,32.35
2022-12-17T14:52:49.059Z,33.10
2022-12-17T14:57:51.611Z,31.90
2022-12-17T15:02:55.098Z,34.88
2022-12-17T15:07:57.012Z,34.95
2022-12-17T15:12:59.924Z,33.67
2022-12-17T15:18:02.499Z,36.95
2022-12-17T15:23:04.052Z,33.70
2022-12-17T15:28:05.378Z,31.38
2022-12-17T15:33:08.463Z,33.75
2022-12-17T15:38:11.248Z,27.95
2022-12-17T15:43:15.379Z,33.50
2022-12-17T15:48:21.836Z,30.17
2022-12-17T15:53:25.637Z,32.50
2022-12-17T15:58:27.534Z,35.50
2022-12-17T16:03:29.100Z,34.00
2022-12-17T16:08:30.572Z,39.28
2022-12-17T16:13:31.945Z,43.70
2022-12-17T16:18:33.659Z,43.95
2022-12-17T16:23:37.596Z,39.45
2022-12-17T16:28:40.264Z,34.83
2022-12-17T16:33:43.214Z,36.83
2022-12-17T16:38:47.677Z,37.78
2022-12-17T16:43:50.074Z,37.07
2022-12-17T16:48:52.437Z,37.65
2022-12-17T16:53:54.057Z,42.70
2022-12-17T16:58:56.640Z,36.17
2022-12-17T17:04:07.104Z,35.63
2022-12-17T17:09:09.646Z,37.45
2022-12-17T17:14:11.341Z,35.75
2022-12-17T17:19:13.529Z,35.65
2022-12-17T17:24:21.448Z,35.15
2022-12-17T17:29:24.232Z,39.67
2022-12-17T17:34:25.652Z,37.63
2022-12-17T17:39:31.859Z,47.35
2022-12-17T17:44:33.814Z,46.15
2022-12-17T17:49:38.618Z,41.17
2022-12-17T17:54:40.809Z,27.70
2022-12-17T17:59:42.528Z,39.83
2022-12-17T18:04:44.184Z,37.88
2022-12-17T18:09:46.784Z,39.38
2022-12-17T18:15:12.776Z,32.50
2022-12-17T18:20:10.708Z,38.10
2022-12-17T18:25:13.450Z,36.83
2022-12-17T18:30:16.243Z,32.58
2022-12-17T18:35:18.059Z,34.78
2022-12-17T18:40:19.721Z,27.13
2022-12-17T18:45:21.395Z,31.15
2022-12-17T18:50:23.791Z,29.00
2022-12-17T18:55:25.655Z,34.65
2022-12-17T19:00:27.055Z,31.48
2022-12-17T19:05:30.805Z,31.13
2022-12-17T19:10:37.629Z,29.25
2022-12-17T19:15:39.264Z,33.53
2022-12-17T19:20:40.635Z,28.00
2022-12-17T19:25:42.243Z,26.95
2022-12-17T19:30:44.277Z,27.83
2022-12-17T19:35:45.676Z,28.05
2022-12-17T19:40:52.129Z,26.73
2022-12-17T19:46:01.361Z,27.65
2022-12-17T19:51:04.126Z,27.90
2022-12-17T19:56:32.552Z,24.88
2022-12-17T20:01:41.280Z,28.80
2022-12-17T20:06:44.141Z,26.63
2022-12-17T20:11:45.579Z,27.30
2022-12-17T20:16:58.197Z,26.30
2022-12-17T20:22:02.015Z,28.45
2022-12-17T20:27:03.835Z,34.25
2022-12-17T20:32:05.476Z,34.15
2022-12-17T20:37:07.042Z,34.63
2022-12-17T20:42:09.269Z,32.42
2022-12-17T20:47:10.727Z,31.10
2022-12-17T20:52:12.233Z,37.22
2022-12-17T20:57:15.959Z,35.20
2022-12-17T21:02:18.647Z,31.80
2022-12-17T21:07:20.075Z,32.60
2022-12-17T21:12:21.461Z,35.83
2022-12-17T21:17:23.507Z,34.35
2022-12-17T21:22:25.309Z,33.95
2022-12-17T21:27:26.714Z,34.28
2022-12-17T21:32:33.707Z,34.80
2022-12-17T21:37:35.400Z,30.92
2022-12-17T21:43:13.838Z,34.78
2022-12-17T21:48:15.530Z,33.15
2022-12-17T21:53:17.087Z,34.70
2022-12-17T21:58:19.227Z,33.05
2022-12-17T22:03:20.846Z,30.42
2022-12-17T22:08:22.239Z,34.45
2022-12-17T22:13:42.663Z,36.35
2022-12-17T22:18:44.123Z,35.35
2022-12-17T22:23:49.223Z,32.20
2022-12-17T22:35:08.328Z,30.85
2022-12-17T22:44:15.258Z,31.10
2022-12-17T22:44:51.775Z,30.17
2022-12-17T22:49:55.354Z,33.08
2022-12-17T22:54:57.350Z,28.35
2022-12-17T23:00:00.781Z,25.52
2022-12-17T23:05:02.155Z,26.50
2022-12-17T23:10:05.002Z,25.88
2022-12-17T23:15:06.900Z,26.55
2022-12-17T23:20:08.874Z,26.35
2022-12-17T23:25:10.765Z,32.10
2022-12-17T23:30:13.940Z,32.00
2022-12-17T23:35:15.611Z,29.27
2022-12-17T23:40:17.106Z,28.98
2022-12-17T23:45:18.746Z,32.78
2022-12-17T23:50:20.094Z,24.70
2022-12-17T23:55:21.489Z,25.95
